createdAt,value
2022-10-17T00:00:35.472Z,14.82
2022-10-17T00:01:35.726Z,14.81
2022-10-17T00:02:35.973Z,14.79
2022-10-17T00:03:43.241Z,14.78
2022-10-17T00:04:36.467Z,14.78
2022-10-17T00:05:36.731Z,14.79
2022-10-17T00:06:36.995Z,14.78
2022-10-17T00:07:37.289Z,14.77
2022-10-17T00:08:37.536Z,14.77
2022-10-17T00:09:37.756Z,14.74
2022-10-17T00:10:38.010Z,14.74
2022-10-17T00:11:38.244Z,14.77
2022-10-17T00:12:38.468Z,14.78
2022-10-17T00:13:38.694Z,14.77
2022-10-17T00:14:38.913Z,14.78
2022-10-17T00:15:39.139Z,14.77
2022-10-17T00:16:39.393Z,14.74
2022-10-17T00:17:39.642Z,14.74
2022-10-17T00:18:39.875Z,14.71
2022-10-17T00:19:40.115Z,14.70
2022-10-17T00:20:40.342Z,14.70
2022-10-17T00:21:40.612Z,14.68
2022-10-17T00:22:40.852Z,14.68
2022-10-17T00:23:41.076Z,14.71
2022-10-17T00:24:41.301Z,14.71
2022-10-17T00:25:41.529Z,14.73
2022-10-17T00:26:41.791Z,14.70
2022-10-17T00:27:42.042Z,14.70
2022-10-17T00:28:42.312Z,14.70
2022-10-17T00:29:42.464Z,14.68
2022-10-17T00:30:42.717Z,14.67
2022-10-17T00:31:42.967Z,14.66
2022-10-17T00:32:43.180Z,14.62
2022-10-17T00:33:43.459Z,14.61
2022-10-17T00:34:43.713Z,14.58
2022-10-17T00:35:43.960Z,14.59
2022-10-17T00:36:44.199Z,14.56
2022-10-17T00:37:44.458Z,14.56
2022-10-17T00:38:44.695Z,14.56
2022-10-17T00:39:44.917Z,14.58
2022-10-17T00:40:45.164Z,14.59
2022-10-17T00:41:45.433Z,14.61
2022-10-17T00:42:45.688Z,14.61
2022-10-17T00:43:45.942Z,14.62
2022-10-17T00:44:46.158Z,14.62
2022-10-17T00:45:46.403Z,14.63
2022-10-17T00:46:46.666Z,14.63
2022-10-17T00:47:46.933Z,14.66
2022-10-17T00:48:47.197Z,14.62
2022-10-17T00:49:47.478Z,14.62
2022-10-17T00:50:47.719Z,14.61
2022-10-17T00:51:47.988Z,14.59
2022-10-17T00:52:48.236Z,14.61
2022-10-17T00:53:48.459Z,14.59
2022-10-17T00:54:48.699Z,14.61
2022-10-17T00:55:48.925Z,14.63
2022-10-17T00:56:49.186Z,14.63
2022-10-17T00:57:49.417Z,14.66
2022-10-17T00:58:49.646Z,14.67
2022-10-17T00:59:49.897Z,14.67
2022-10-17T01:00:50.134Z,14.68
2022-10-17T01:01:50.387Z,14.70
2022-10-17T01:02:50.636Z,14.71
2022-10-17T01:03:50.884Z,14.71
2022-10-17T01:04:51.146Z,14.71
2022-10-17T01:05:51.376Z,14.74
2022-10-17T01:06:51.637Z,14.74
2022-10-17T01:07:51.960Z,14.77
2022-10-17T01:08:52.175Z,14.78
2022-10-17T01:09:52.316Z,14.78
2022-10-17T01:10:52.547Z,14.78
2022-10-17T01:11:52.793Z,14.79
2022-10-17T01:12:53.031Z,14.81
2022-10-17T01:13:53.248Z,14.78
2022-10-17T01:14:53.484Z,14.73
2022-10-17T01:15:53.716Z,14.70
2022-10-17T01:16:53.964Z,14.67
2022-10-17T01:17:54.198Z,14.63
2022-10-17T01:18:54.532Z,14.61
2022-10-17T01:19:54.633Z,14.59
2022-10-17T01:20:54.863Z,14.59
2022-10-17T01:21:55.138Z,14.56
2022-10-17T01:22:55.380Z,14.55
2022-10-17T01:23:55.656Z,14.52
2022-10-17T01:24:55.884Z,14.51
2022-10-17T01:25:56.163Z,14.49
2022-10-17T01:26:56.445Z,14.48
2022-10-17T01:27:56.688Z,14.45
2022-10-17T01:28:56.925Z,14.45
2022-10-17T01:29:57.167Z,14.45
2022-10-17T01:30:57.445Z,14.45
2022-10-17T01:31:57.677Z,14.44
2022-10-17T01:32:57.925Z,14.44
2022-10-17T01:33:58.148Z,14.44
2022-10-17T01:34:58.409Z,14.44
2022-10-17T01:36:03.185Z,14.43
2022-10-17T01:36:59.918Z,14.41
2022-10-17T01:37:59.020Z,14.40
2022-10-17T01:38:59.291Z,14.37
2022-10-17T01:39:59.542Z,14.36
2022-10-17T01:41:00.703Z,14.31
2022-10-17T01:42:00.103Z,14.33
2022-10-17T01:43:00.338Z,14.31
2022-10-17T01:44:00.576Z,14.30
2022-10-17T01:45:00.834Z,14.26
2022-10-17T01:46:01.119Z,14.26
2022-10-17T01:47:01.405Z,14.25
2022-10-17T01:48:01.714Z,14.26
2022-10-17T01:49:01.833Z,14.23
2022-10-17T01:50:02.069Z,14.23
2022-10-17T01:51:02.329Z,14.22
2022-10-17T01:52:02.641Z,14.20
2022-10-17T01:53:02.788Z,14.19
2022-10-17T01:54:03.042Z,14.19
2022-10-17T01:55:03.286Z,14.18
2022-10-17T01:56:03.534Z,14.15
2022-10-17T01:57:03.820Z,14.16
2022-10-17T01:58:04.060Z,14.15
2022-10-17T01:59:04.312Z,14.15
2022-10-17T02:00:04.551Z,14.16
2022-10-17T02:01:04.862Z,14.16
2022-10-17T02:02:04.990Z,14.16
2022-10-17T02:03:05.247Z,14.16
2022-10-17T02:04:05.479Z,14.15
2022-10-17T02:05:05.722Z,14.13
2022-10-17T02:06:05.959Z,14.13
2022-10-17T02:07:06.249Z,14.13
2022-10-17T02:08:06.486Z,14.12
2022-10-17T02:09:06.747Z,14.15
2022-10-17T02:10:06.987Z,14.13
2022-10-17T02:11:07.247Z,14.12
2022-10-17T02:12:07.508Z,14.11
2022-10-17T02:13:07.783Z,14.08
2022-10-17T02:14:08.037Z,14.07
2022-10-17T02:15:08.224Z,14.08
2022-10-17T02:16:08.474Z,14.08
2022-10-17T02:17:08.742Z,14.08
2022-10-17T02:18:08.976Z,14.11
2022-10-17T02:19:09.224Z,14.11
2022-10-17T02:20:09.462Z,14.11
2022-10-17T02:21:09.696Z,14.12
2022-10-17T02:22:09.974Z,14.11
2022-10-17T02:23:10.255Z,14.11
2022-10-17T02:24:10.473Z,14.11
2022-10-17T02:25:10.718Z,14.12
2022-10-17T02:26:10.963Z,14.11
2022-10-17T02:27:11.227Z,14.08
2022-10-17T02:28:11.476Z,14.08
2022-10-17T02:29:11.719Z,14.08
2022-10-17T02:30:11.970Z,14.07
2022-10-17T02:31:12.207Z,14.07
2022-10-17T02:32:12.540Z,14.08
2022-10-17T02:33:12.704Z,14.11
2022-10-17T02:34:12.969Z,14.13
2022-10-17T02:35:13.203Z,14.13
2022-10-17T02:36:13.451Z,14.16
2022-10-17T02:37:13.714Z,14.15
2022-10-17T02:38:13.954Z,14.15
2022-10-17T02:39:14.187Z,14.13
2022-10-17T02:40:14.441Z,14.12
2022-10-17T02:41:14.679Z,14.12
2022-10-17T02:42:14.947Z,14.12
2022-10-17T02:43:15.182Z,14.11
2022-10-17T02:44:15.437Z,14.07
2022-10-17T02:45:15.701Z,14.07
2022-10-17T02:46:15.966Z,14.07
2022-10-17T02:47:16.219Z,14.08
2022-10-17T02:48:16.474Z,14.11
2022-10-17T02:49:16.715Z,14.11
2022-10-17T02:50:17.023Z,14.11
2022-10-17T02:51:17.225Z,14.12
2022-10-17T02:52:17.482Z,14.12
2022-10-17T02:53:17.710Z,14.13
2022-10-17T02:54:17.930Z,14.13
2022-10-17T02:55:18.193Z,14.13
2022-10-17T02:56:18.421Z,14.13
2022-10-17T02:57:18.689Z,14.15
2022-10-17T02:58:18.929Z,14.13
2022-10-17T02:59:19.186Z,14.13
2022-10-17T03:00:19.446Z,14.16
2022-10-17T03:01:19.762Z,14.18
2022-10-17T03:02:19.916Z,14.19
2022-10-17T03:03:20.153Z,14.16
2022-10-17T03:04:20.424Z,14.16
2022-10-17T03:05:20.707Z,14.15
2022-10-17T03:06:20.986Z,14.15
2022-10-17T03:07:21.253Z,14.16
2022-10-17T03:08:21.506Z,14.15
2022-10-17T03:09:21.766Z,14.18
2022-10-17T03:10:22.049Z,14.16
2022-10-17T03:11:22.288Z,14.19
2022-10-17T03:12:22.597Z,14.22
2022-10-17T03:13:22.756Z,14.19
2022-10-17T03:14:23.025Z,14.23
2022-10-17T03:15:23.249Z,14.25
2022-10-17T03:16:23.501Z,14.26
2022-10-17T03:17:23.789Z,14.23
2022-10-17T03:18:24.031Z,14.23
2022-10-17T03:19:24.271Z,14.23
2022-10-17T03:20:24.538Z,14.28
2022-10-17T03:21:24.780Z,14.31
2022-10-17T03:22:25.072Z,14.33
2022-10-17T03:23:25.198Z,14.36
2022-10-17T03:24:25.486Z,14.37
2022-10-17T03:25:25.707Z,14.36
2022-10-17T03:26:25.980Z,14.36
2022-10-17T03:27:26.480Z,14.37
2022-10-17T03:28:26.444Z,14.38
2022-10-17T03:29:26.679Z,14.38
2022-10-17T03:30:26.928Z,14.38
2022-10-17T03:31:27.173Z,14.37
2022-10-17T03:32:27.417Z,14.38
2022-10-17T03:33:27.657Z,14.38
2022-10-17T03:34:27.899Z,14.41
2022-10-17T03:35:28.142Z,14.40
2022-10-17T03:36:28.368Z,14.43
2022-10-17T03:37:28.917Z,14.41
2022-10-17T03:38:28.803Z,14.41
2022-10-17T03:39:29.059Z,14.41
2022-10-17T03:40:29.324Z,14.43
2022-10-17T03:41:29.600Z,14.44
2022-10-17T03:42:29.845Z,14.44
2022-10-17T03:43:30.028Z,14.44
2022-10-17T03:44:30.256Z,14.45
2022-10-17T03:45:30.487Z,14.48
2022-10-17T03:46:30.734Z,14.51
2022-10-17T03:47:31.285Z,14.49
2022-10-17T03:48:31.250Z,14.49
2022-10-17T03:49:31.498Z,14.48
2022-10-17T03:50:31.728Z,14.45
2022-10-17T03:51:31.953Z,14.48
2022-10-17T03:52:32.207Z,14.49
2022-10-17T03:53:32.446Z,14.49
2022-10-17T03:54:32.694Z,14.44
2022-10-17T03:55:32.923Z,14.43
2022-10-17T03:56:33.163Z,14.43
2022-10-17T03:57:33.410Z,14.44
2022-10-17T03:58:33.685Z,14.43
2022-10-17T03:59:33.901Z,14.43
2022-10-17T04:00:34.126Z,14.44
2022-10-17T04:01:34.500Z,14.41
2022-10-17T04:02:34.667Z,14.43
2022-10-17T04:03:34.924Z,14.44
2022-10-17T04:04:35.153Z,14.44
2022-10-17T04:05:35.385Z,14.45
2022-10-17T04:06:35.611Z,14.44
2022-10-17T04:07:35.890Z,14.43
2022-10-17T04:08:36.130Z,14.44
2022-10-17T04:09:36.362Z,14.44
2022-10-17T04:10:36.605Z,14.44
2022-10-17T04:11:36.841Z,14.41
2022-10-17T04:12:37.091Z,14.41
2022-10-17T04:13:37.346Z,14.40
2022-10-17T04:14:37.595Z,14.40
2022-10-17T04:15:37.813Z,14.41
2022-10-17T04:16:38.083Z,14.41
2022-10-17T04:17:38.459Z,14.40
2022-10-17T04:18:38.600Z,14.41
2022-10-17T04:19:38.846Z,14.43
2022-10-17T04:20:39.074Z,14.43
2022-10-17T04:21:39.355Z,14.43
2022-10-17T04:22:39.634Z,14.44
2022-10-17T04:23:39.891Z,14.43
2022-10-17T04:24:40.130Z,14.44
2022-10-17T04:25:40.364Z,14.44
2022-10-17T04:26:40.609Z,14.43
2022-10-17T04:27:40.848Z,14.44
2022-10-17T04:28:41.095Z,14.43
2022-10-17T04:29:41.322Z,14.44
2022-10-17T04:30:45.070Z,14.43
2022-10-17T04:31:41.829Z,14.43
2022-10-17T04:32:42.086Z,14.44
2022-10-17T04:33:42.327Z,14.45
2022-10-17T04:34:42.567Z,14.48
2022-10-17T04:35:42.818Z,14.45
2022-10-17T04:36:43.062Z,14.43
2022-10-17T04:37:43.338Z,14.43
2022-10-17T04:38:43.610Z,14.44
2022-10-17T04:39:43.856Z,14.44
2022-10-17T04:40:44.112Z,14.44
2022-10-17T04:41:44.374Z,14.48
2022-10-17T04:42:44.681Z,14.49
2022-10-17T04:43:48.457Z,14.48
2022-10-17T04:44:46.091Z,14.45
2022-10-17T04:45:45.317Z,14.48
2022-10-17T04:46:45.560Z,14.45
2022-10-17T04:47:45.824Z,14.48
2022-10-17T04:48:46.061Z,14.45
2022-10-17T04:49:46.301Z,14.45
2022-10-17T04:50:46.537Z,14.45
2022-10-17T04:51:46.809Z,14.43
2022-10-17T04:52:47.084Z,14.43
2022-10-17T04:53:47.337Z,14.43
2022-10-17T04:54:47.599Z,14.41
2022-10-17T04:55:47.865Z,14.41
2022-10-17T04:56:48.117Z,14.41
2022-10-17T04:57:48.388Z,14.40
2022-10-17T04:58:48.634Z,14.43
2022-10-17T04:59:48.877Z,14.43
2022-10-17T05:00:49.140Z,14.43
2022-10-17T05:01:49.467Z,14.43
2022-10-17T05:02:49.705Z,14.44
2022-10-17T05:03:50.014Z,14.45
2022-10-17T05:04:50.242Z,14.43
2022-10-17T05:05:50.484Z,14.41
2022-10-17T05:06:50.747Z,14.40
2022-10-17T05:07:50.992Z,14.40
2022-10-17T05:08:51.235Z,14.40
2022-10-17T05:09:51.477Z,14.38
2022-10-17T05:10:51.802Z,14.36
2022-10-17T05:11:51.994Z,14.36
2022-10-17T05:12:52.245Z,14.34
2022-10-17T05:13:52.493Z,14.34
2022-10-17T05:14:52.751Z,14.31
2022-10-17T05:15:53.000Z,14.28
2022-10-17T05:16:53.241Z,14.28
2022-10-17T05:17:53.524Z,14.26
2022-10-17T05:18:53.772Z,14.25
2022-10-17T05:19:54.027Z,14.25
2022-10-17T05:20:54.262Z,14.25
2022-10-17T05:21:54.544Z,14.23
2022-10-17T05:22:54.770Z,14.22
2022-10-17T05:23:55.022Z,14.20
2022-10-17T05:24:55.290Z,14.18
2022-10-17T05:25:55.556Z,14.13
2022-10-17T05:26:55.798Z,14.13
2022-10-17T05:27:56.050Z,14.15
2022-10-17T05:28:56.347Z,14.16
2022-10-17T05:29:57.425Z,14.16
2022-10-17T05:30:56.855Z,14.16
2022-10-17T05:31:57.136Z,14.15
2022-10-17T05:32:57.366Z,14.15
2022-10-17T05:33:57.641Z,14.13
2022-10-17T05:34:57.878Z,14.12
2022-10-17T05:35:58.157Z,14.08
2022-10-17T05:36:58.401Z,14.08
2022-10-17T05:37:58.639Z,14.07
2022-10-17T05:38:58.898Z,14.08
2022-10-17T05:39:59.181Z,14.07
2022-10-17T05:40:59.420Z,14.11
2022-10-17T05:41:59.660Z,14.08
2022-10-17T05:42:59.916Z,14.11
2022-10-17T05:44:03.165Z,14.08
2022-10-17T05:45:01.357Z,14.11
2022-10-17T05:46:00.595Z,14.12
2022-10-17T05:47:00.836Z,14.13
2022-10-17T05:48:01.071Z,14.15
2022-10-17T05:49:01.339Z,14.15
2022-10-17T05:50:01.613Z,14.13
2022-10-17T05:51:01.870Z,14.15
2022-10-17T05:52:02.100Z,14.15
2022-10-17T05:53:02.330Z,14.16
2022-10-17T05:54:02.579Z,14.19
2022-10-17T05:55:02.837Z,14.20
2022-10-17T05:56:03.085Z,14.22
2022-10-17T05:57:03.325Z,14.22
2022-10-17T05:58:03.564Z,14.22
2022-10-17T05:59:03.807Z,14.25
2022-10-17T06:00:04.064Z,14.26
2022-10-17T06:01:05.534Z,14.28
2022-10-17T06:02:04.625Z,14.28
2022-10-17T06:03:04.732Z,14.28
2022-10-17T06:04:11.979Z,14.30
2022-10-17T06:05:07.835Z,14.31
2022-10-17T06:06:08.054Z,14.33
2022-10-17T06:07:05.615Z,14.36
2022-10-17T06:08:05.841Z,14.38
2022-10-17T06:09:06.078Z,14.40
2022-10-17T06:10:06.306Z,14.43
2022-10-17T06:11:09.862Z,14.43
2022-10-17T06:12:06.755Z,14.44
2022-10-17T06:13:07.046Z,14.45
2022-10-17T06:14:07.273Z,14.51
2022-10-17T06:15:07.518Z,14.52
2022-10-17T06:16:07.761Z,14.52
2022-10-17T06:17:12.088Z,14.55
2022-10-17T06:18:09.188Z,14.59
2022-10-17T06:19:08.412Z,14.62
2022-10-17T06:20:08.657Z,14.66
2022-10-17T06:21:08.898Z,14.68
2022-10-17T06:22:09.142Z,14.70
2022-10-17T06:23:09.378Z,14.74
2022-10-17T06:24:09.622Z,14.81
2022-10-17T06:25:09.880Z,14.86
2022-10-17T06:26:10.136Z,14.89
2022-10-17T06:27:11.870Z,14.93
2022-10-17T06:28:10.559Z,15.00
2022-10-17T06:29:10.897Z,15.07
2022-10-17T06:30:11.057Z,15.11
2022-10-17T06:31:11.287Z,15.18
2022-10-17T06:32:14.931Z,15.32
2022-10-17T06:33:11.729Z,15.41
2022-10-17T06:34:11.976Z,15.50
2022-10-17T06:35:12.199Z,15.65
2022-10-17T06:36:12.428Z,15.76
2022-10-17T06:37:12.659Z,15.87
2022-10-17T06:38:12.887Z,15.96
2022-10-17T06:39:13.126Z,16.03
2022-10-17T06:40:13.357Z,16.10
2022-10-17T06:41:13.582Z,16.17
2022-10-17T06:42:13.804Z,16.09
2022-10-17T06:43:14.040Z,16.13
2022-10-17T06:44:14.283Z,16.13
2022-10-17T06:45:14.505Z,16.26
2022-10-17T06:46:14.714Z,16.43
2022-10-17T06:47:16.644Z,16.62
2022-10-17T06:48:15.226Z,16.80
2022-10-17T06:49:15.466Z,16.82
2022-10-17T06:50:15.703Z,16.69
2022-10-17T06:51:15.919Z,16.43
2022-10-17T06:52:16.154Z,16.31
2022-10-17T06:53:16.394Z,16.39
2022-10-17T06:54:16.604Z,16.49
2022-10-17T06:55:19.657Z,16.49
2022-10-17T06:56:17.997Z,16.55
2022-10-17T06:57:17.217Z,16.62
2022-10-17T06:58:17.669Z,16.58
2022-10-17T06:59:17.643Z,16.58
2022-10-17T07:00:17.875Z,16.66
2022-10-17T07:01:18.085Z,16.74
2022-10-17T07:02:18.332Z,16.77
2022-10-17T07:03:18.562Z,16.72
2022-10-17T07:04:18.777Z,16.72
2022-10-17T07:05:18.990Z,16.98
2022-10-17T07:06:19.343Z,17.35
2022-10-17T07:07:19.429Z,17.52
2022-10-17T07:08:19.665Z,17.60
2022-10-17T07:09:19.883Z,17.75
2022-10-17T07:10:20.187Z,18.15
2022-10-17T07:11:20.281Z,18.12
2022-10-17T07:12:20.509Z,18.09
2022-10-17T07:13:20.736Z,18.09
2022-10-17T07:14:20.962Z,18.16
2022-10-17T07:15:21.177Z,18.27
2022-10-17T07:16:21.373Z,18.53
2022-10-17T07:17:21.576Z,18.73
2022-10-17T07:18:21.831Z,18.74
2022-10-17T07:19:22.060Z,18.83
2022-10-17T07:20:22.270Z,18.74
2022-10-17T07:21:22.472Z,18.43
2022-10-17T07:22:22.679Z,18.33
2022-10-17T07:23:22.896Z,18.33
2022-10-17T07:24:23.116Z,18.45
2022-10-17T07:25:23.311Z,18.45
2022-10-17T07:26:23.515Z,18.48
2022-10-17T07:27:23.734Z,18.61
2022-10-17T07:28:23.991Z,18.57
2022-10-17T07:29:24.126Z,18.61
2022-10-17T07:30:24.364Z,18.67
2022-10-17T07:31:24.564Z,18.53
2022-10-17T07:32:24.785Z,18.67
2022-10-17T07:33:25.023Z,18.98
2022-10-17T07:34:25.247Z,19.30
2022-10-17T07:35:25.449Z,19.60
2022-10-17T07:36:25.668Z,19.99
2022-10-17T07:37:25.880Z,20.07
2022-10-17T07:38:26.190Z,20.12
2022-10-17T07:39:26.282Z,20.29
2022-10-17T07:40:26.464Z,20.36
2022-10-17T07:41:26.662Z,20.63
2022-10-17T07:42:26.868Z,20.60
2022-10-17T07:43:27.088Z,20.77
2022-10-17T07:44:27.298Z,20.64
2022-10-17T07:45:27.496Z,20.66
2022-10-17T07:46:27.708Z,20.96
2022-10-17T07:47:28.095Z,21.01
2022-10-17T07:48:28.108Z,21.05
2022-10-17T07:49:28.288Z,21.19
2022-10-17T07:50:28.526Z,21.17
2022-10-17T07:51:28.599Z,21.23
2022-10-17T07:52:28.952Z,21.69
2022-10-17T07:53:28.973Z,22.22
2022-10-17T07:54:29.175Z,22.34
2022-10-17T07:55:29.342Z,22.46
2022-10-17T07:56:29.544Z,22.30
2022-10-17T07:57:29.722Z,22.12
2022-10-17T07:58:29.909Z,21.78
2022-10-17T07:59:30.091Z,21.45
2022-10-17T08:00:30.267Z,21.44
2022-10-17T08:01:30.447Z,21.85
2022-10-17T08:02:30.935Z,22.03
2022-10-17T08:03:30.780Z,21.85
2022-10-17T08:04:30.969Z,21.74
2022-10-17T08:05:31.138Z,21.80
2022-10-17T08:06:31.389Z,22.14
2022-10-17T08:07:31.454Z,22.14
2022-10-17T08:08:31.665Z,22.38
2022-10-17T08:09:31.743Z,22.63
2022-10-17T08:10:31.920Z,22.68
2022-10-17T08:11:32.079Z,22.71
2022-10-17T08:12:32.705Z,23.08
2022-10-17T08:13:32.386Z,23.14
2022-10-17T08:14:32.429Z,23.49
2022-10-17T08:15:32.584Z,23.32
2022-10-17T08:16:32.744Z,22.96
2022-10-17T08:17:32.892Z,22.76
2022-10-17T08:18:33.056Z,22.99
2022-10-17T08:19:33.217Z,23.20
2022-10-17T08:20:33.383Z,23.17
2022-10-17T08:21:33.528Z,23.44
2022-10-17T08:22:33.673Z,23.51
2022-10-17T08:23:33.841Z,23.33
2022-10-17T08:24:34.002Z,23.32
2022-10-17T08:25:34.137Z,23.11
2022-10-17T08:26:35.049Z,22.62
2022-10-17T08:27:34.477Z,22.25
2022-10-17T08:28:34.679Z,22.34
2022-10-17T08:29:34.805Z,22.10
2022-10-17T08:30:35.019Z,21.94
2022-10-17T08:31:35.070Z,21.88
2022-10-17T08:32:35.228Z,22.03
2022-10-17T08:33:35.409Z,22.62
2022-10-17T08:34:35.570Z,23.01
2022-10-17T08:35:35.730Z,23.64
2022-10-17T08:36:35.997Z,23.96
2022-10-17T08:37:36.042Z,23.95
2022-10-17T08:38:36.942Z,24.16
2022-10-17T08:39:36.289Z,24.21
2022-10-17T08:40:36.440Z,24.31
2022-10-17T08:41:36.574Z,24.22
2022-10-17T08:42:36.717Z,23.71
2022-10-17T08:43:36.874Z,23.47
2022-10-17T08:44:37.016Z,23.18
2022-10-17T08:45:37.167Z,23.39
2022-10-17T08:46:37.348Z,23.77
2022-10-17T08:47:37.476Z,23.62
2022-10-17T08:48:37.636Z,23.16
2022-10-17T08:49:37.780Z,23.52
2022-10-17T08:50:37.919Z,24.01
2022-10-17T08:51:38.120Z,24.31
2022-10-17T08:52:38.153Z,24.61
2022-10-17T08:53:38.311Z,24.97
2022-10-17T08:54:38.453Z,25.61
2022-10-17T08:55:41.343Z,25.48
2022-10-17T08:56:55.054Z,25.25
2022-10-17T08:57:39.851Z,24.92
2022-10-17T08:58:38.891Z,24.69
2022-10-17T08:59:39.034Z,24.99
2022-10-17T09:00:39.167Z,25.16
2022-10-17T09:01:39.307Z,25.44
2022-10-17T09:02:39.480Z,25.77
2022-10-17T09:03:39.621Z,26.01
2022-10-17T09:04:39.775Z,26.44
2022-10-17T09:05:39.880Z,26.29
2022-10-17T09:06:40.168Z,26.19
2022-10-17T09:07:40.094Z,26.04
2022-10-17T09:08:40.234Z,26.13
2022-10-17T09:09:40.375Z,26.51
2022-10-17T09:10:40.490Z,26.71
2022-10-17T09:11:40.612Z,26.11
2022-10-17T09:12:40.731Z,26.13
2022-10-17T09:13:40.866Z,25.86
2022-10-17T09:14:40.997Z,25.93
2022-10-17T09:15:41.118Z,25.55
2022-10-17T09:16:41.242Z,25.59
2022-10-17T09:17:41.391Z,25.48
2022-10-17T09:18:41.533Z,25.33
2022-10-17T09:19:41.663Z,25.56
2022-10-17T09:20:41.773Z,25.86
2022-10-17T09:21:41.903Z,25.98
2022-10-17T09:22:42.060Z,26.30
2022-10-17T09:23:42.622Z,26.45
2022-10-17T09:24:42.333Z,25.85
2022-10-17T09:25:42.454Z,26.18
2022-10-17T09:26:42.582Z,26.41
2022-10-17T09:27:42.712Z,26.92
2022-10-17T09:28:42.887Z,26.85
2022-10-17T09:29:43.974Z,26.44
2022-10-17T09:30:45.589Z,26.45
2022-10-17T09:31:43.163Z,26.60
2022-10-17T09:32:43.324Z,26.41
2022-10-17T09:33:54.269Z,26.49
2022-10-17T09:34:44.541Z,26.70
2022-10-17T09:35:43.657Z,26.82
2022-10-17T09:36:43.775Z,26.83
2022-10-17T09:37:43.894Z,26.67
2022-10-17T09:38:44.054Z,26.71
2022-10-17T09:39:44.060Z,26.76
2022-10-17T09:40:44.171Z,26.74
2022-10-17T09:41:46.536Z,26.76
2022-10-17T09:42:44.359Z,26.92
2022-10-17T09:43:44.493Z,27.50
2022-10-17T09:44:44.612Z,27.86
2022-10-17T09:45:44.794Z,27.82
2022-10-17T09:46:44.794Z,27.93
2022-10-17T09:47:44.894Z,27.94
2022-10-17T09:48:46.200Z,27.52
2022-10-17T09:49:45.131Z,27.43
2022-10-17T09:50:48.257Z,27.15
2022-10-17T09:51:46.327Z,26.83
2022-10-17T09:52:45.432Z,26.55
2022-10-17T09:53:45.556Z,26.67
2022-10-17T09:54:45.661Z,27.01
2022-10-17T09:55:45.766Z,27.40
2022-10-17T09:56:45.872Z,27.55
2022-10-17T09:57:45.998Z,27.63
2022-10-17T09:58:46.111Z,28.08
2022-10-17T09:59:46.217Z,27.83
2022-10-17T10:00:46.394Z,27.67
2022-10-17T10:01:46.386Z,27.44
2022-10-17T10:02:46.490Z,27.61
2022-10-17T10:03:46.619Z,28.06
2022-10-17T10:05:03.239Z,28.25
2022-10-17T10:05:47.766Z,28.45
2022-10-17T10:06:46.849Z,28.35
2022-10-17T10:07:46.937Z,28.40
2022-10-17T10:08:47.006Z,28.18
2022-10-17T10:09:47.097Z,28.23
2022-10-17T10:10:47.189Z,28.49
2022-10-17T10:11:47.347Z,28.65
2022-10-17T10:12:47.337Z,28.68
2022-10-17T10:13:47.439Z,28.70
2022-10-17T10:14:47.528Z,28.56
2022-10-17T10:15:47.649Z,28.16
2022-10-17T10:16:47.723Z,27.68
2022-10-17T10:17:48.767Z,27.45
2022-10-17T10:18:50.087Z,27.78
2022-10-17T10:19:47.897Z,28.04
2022-10-17T10:20:47.991Z,27.64
2022-10-17T10:21:48.066Z,27.03
2022-10-17T10:22:48.222Z,27.29
2022-10-17T10:23:48.219Z,27.67
2022-10-17T10:24:48.328Z,27.34
2022-10-17T10:25:48.424Z,27.00
2022-10-17T10:26:48.519Z,26.98
2022-10-17T10:27:48.623Z,27.28
2022-10-17T10:28:48.837Z,27.63
2022-10-17T10:29:48.859Z,27.75
2022-10-17T10:30:48.992Z,27.44
2022-10-17T10:31:49.114Z,27.30
2022-10-17T10:32:49.193Z,27.55
2022-10-17T10:33:50.913Z,27.76
2022-10-17T10:34:49.422Z,27.81
2022-10-17T10:35:49.519Z,27.34
2022-10-17T10:36:49.635Z,26.92
2022-10-17T10:37:49.732Z,27.50
2022-10-17T10:38:49.856Z,27.93
2022-10-17T10:39:49.986Z,28.68
2022-10-17T10:40:50.091Z,29.06
2022-10-17T10:41:50.206Z,29.42
2022-10-17T10:42:50.303Z,29.24
2022-10-17T10:43:50.430Z,29.09
2022-10-17T10:44:50.549Z,29.57
2022-10-17T10:45:50.649Z,29.89
2022-10-17T10:46:50.749Z,29.80
2022-10-17T10:47:50.873Z,30.02
2022-10-17T10:48:50.985Z,29.96
2022-10-17T10:49:51.082Z,30.08
2022-10-17T10:50:51.167Z,29.98
2022-10-17T10:51:51.259Z,29.92
2022-10-17T10:52:51.344Z,29.94
2022-10-17T10:53:51.454Z,30.10
2022-10-17T10:54:51.544Z,29.71
2022-10-17T10:55:51.634Z,29.77
2022-10-17T10:56:53.464Z,29.18
2022-10-17T10:57:51.767Z,28.92
2022-10-17T10:58:51.873Z,29.43
2022-10-17T10:59:51.975Z,29.68
2022-10-17T11:00:52.119Z,29.90
2022-10-17T11:01:52.104Z,30.21
2022-10-17T11:02:52.202Z,30.32
2022-10-17T11:03:52.304Z,29.89
2022-10-17T11:04:52.403Z,29.83
2022-10-17T11:05:52.486Z,29.67
2022-10-17T11:06:52.557Z,29.73
2022-10-17T11:07:52.654Z,29.95
2022-10-17T11:08:52.753Z,30.05
2022-10-17T11:09:52.827Z,29.71
2022-10-17T11:10:52.904Z,29.87
2022-10-17T11:11:53.180Z,29.83
2022-10-17T11:12:53.038Z,29.84
2022-10-17T11:13:54.129Z,29.40
2022-10-17T11:14:53.184Z,29.10
2022-10-17T11:15:53.260Z,28.83
2022-10-17T11:16:53.342Z,28.80
2022-10-17T11:17:53.456Z,28.87
2022-10-17T11:18:53.550Z,29.21
2022-10-17T11:19:53.630Z,29.39
2022-10-17T11:20:53.736Z,29.40
2022-10-17T11:21:53.827Z,29.64
2022-10-17T11:22:53.930Z,29.61
2022-10-17T11:23:54.018Z,29.83
2022-10-17T11:24:54.116Z,29.94
2022-10-17T11:25:54.202Z,29.77
2022-10-17T11:26:54.276Z,29.92
2022-10-17T11:27:54.365Z,30.33
2022-10-17T11:28:54.555Z,30.14
2022-10-17T11:29:54.557Z,30.20
2022-10-17T11:30:54.635Z,29.74
2022-10-17T11:31:54.721Z,29.61
2022-10-17T11:32:57.734Z,29.18
2022-10-17T11:33:54.867Z,28.86
2022-10-17T11:34:54.837Z,28.52
2022-10-17T11:35:54.926Z,28.18
2022-10-17T11:36:55.018Z,27.93
2022-10-17T11:37:55.107Z,27.82
2022-10-17T11:38:55.218Z,28.03
2022-10-17T11:39:55.317Z,28.34
2022-10-17T11:40:55.410Z,28.62
2022-10-17T11:41:55.587Z,28.89
2022-10-17T11:42:55.567Z,28.89
2022-10-17T11:43:55.691Z,28.90
2022-10-17T11:44:55.992Z,28.87
2022-10-17T11:45:55.862Z,28.75
2022-10-17T11:46:55.962Z,29.22
2022-10-17T11:47:56.058Z,29.47
2022-10-17T11:48:56.179Z,29.35
2022-10-17T11:49:56.532Z,29.13
2022-10-17T11:52:00.844Z,29.15
2022-10-17T11:52:57.246Z,29.15
2022-10-17T11:53:56.761Z,29.20
2022-10-17T11:54:56.858Z,29.42
2022-10-17T11:55:56.976Z,29.55
2022-10-17T11:57:00.916Z,29.59
2022-10-17T11:57:57.250Z,29.53
2022-10-17T11:58:57.161Z,29.55
2022-10-17T11:59:57.301Z,29.69
2022-10-17T12:00:57.390Z,30.03
2022-10-17T12:01:57.497Z,30.43
2022-10-17T12:02:57.597Z,30.48
2022-10-17T12:03:57.739Z,30.70
2022-10-17T12:05:04.835Z,30.26
2022-10-17T12:05:57.930Z,29.76
2022-10-17T12:06:58.031Z,29.52
2022-10-17T12:07:58.049Z,28.93
2022-10-17T12:08:58.204Z,28.53
2022-10-17T12:09:58.801Z,28.15
2022-10-17T12:10:58.238Z,28.62
2022-10-17T12:11:58.333Z,29.25
2022-10-17T12:12:58.456Z,29.76
2022-10-17T12:14:00.083Z,30.08
2022-10-17T12:14:58.665Z,30.08
2022-10-17T12:15:58.780Z,29.64
2022-10-17T12:16:59.439Z,29.53
2022-10-17T12:17:59.012Z,29.79
2022-10-17T12:18:59.131Z,29.89
2022-10-17T12:19:59.231Z,29.69
2022-10-17T12:21:00.812Z,29.59
2022-10-17T12:21:59.431Z,29.81
2022-10-17T12:22:59.588Z,29.43
2022-10-17T12:23:59.584Z,29.40
2022-10-17T12:24:59.668Z,29.50
2022-10-17T12:26:04.808Z,29.62
2022-10-17T12:26:59.876Z,29.52
2022-10-17T12:27:59.983Z,29.89
2022-10-17T12:29:00.182Z,29.73
2022-10-17T12:30:00.294Z,29.62
2022-10-17T12:31:00.285Z,29.59
2022-10-17T12:32:00.387Z,29.96
2022-10-17T12:33:08.397Z,30.46
2022-10-17T12:34:01.644Z,30.29
2022-10-17T12:35:01.386Z,30.31
2022-10-17T12:36:00.732Z,30.31
2022-10-17T12:37:00.721Z,30.40
2022-10-17T12:38:00.823Z,30.76
2022-10-17T12:39:01.519Z,30.01
2022-10-17T12:40:00.942Z,29.52
2022-10-17T12:41:01.024Z,29.37
2022-10-17T12:42:01.124Z,29.52
2022-10-17T12:43:01.184Z,29.74
2022-10-17T12:44:01.260Z,29.79
2022-10-17T12:45:01.420Z,30.13
2022-10-17T12:46:01.538Z,30.13
2022-10-17T12:47:01.630Z,29.81
2022-10-17T12:48:01.753Z,29.83
2022-10-17T12:49:02.404Z,29.80
2022-10-17T12:50:01.913Z,29.76
2022-10-17T12:51:35.175Z,29.62
2022-10-17T12:52:02.918Z,29.77
2022-10-17T12:53:02.018Z,29.69
2022-10-17T12:54:02.133Z,29.76
2022-10-17T12:55:17.282Z,29.50
2022-10-17T12:56:03.402Z,29.25